createdAt,value
2023-02-28T00:01:15.155Z,99512.84
2023-02-28T00:03:41.749Z,99511.19
2023-02-28T00:06:08.521Z,99520.97
2023-02-28T00:08:35.000Z,99515.75
2023-02-28T00:11:05.741Z,99511.94
2023-02-28T00:13:32.431Z,99506.72
2023-02-28T00:16:20.023Z,99512.66
2023-02-28T00:18:48.298Z,99510.25
2023-02-28T00:21:15.004Z,99507.16
2023-02-28T00:23:42.139Z,99497.13
2023-02-28T00:26:08.637Z,99498.41
2023-02-28T00:28:35.139Z,99496.53
2023-02-28T00:31:01.685Z,99498.06
2023-02-28T00:33:28.728Z,99505.00
2023-02-28T00:36:06.138Z,99506.59
2023-02-28T00:38:32.614Z,99500.50
2023-02-28T00:40:59.575Z,99504.78
2023-02-28T00:43:26.028Z,99493.22
2023-02-28T00:45:52.543Z,99499.41
2023-02-28T00:48:19.022Z,99495.13
2023-02-28T00:50:45.502Z,99495.03
2023-02-28T00:53:11.961Z,99498.59
2023-02-28T00:55:38.466Z,99522.47
2023-02-28T00:58:04.937Z,99527.84
2023-02-28T01:00:31.418Z,99521.00
2023-02-28T01:02:57.876Z,99518.09
2023-02-28T01:05:24.801Z,99511.56
2023-02-28T01:07:51.285Z,99509.53
2023-02-28T01:10:17.742Z,99515.69
2023-02-28T01:12:44.209Z,99522.41
2023-02-28T01:15:13.743Z,99519.25
2023-02-28T01:17:40.215Z,99520.06
2023-02-28T01:20:07.206Z,99517.59
2023-02-28T01:22:33.714Z,99516.69
2023-02-28T01:25:00.175Z,99526.91
2023-02-28T01:27:27.507Z,99519.91
2023-02-28T01:29:53.966Z,99510.00
2023-02-28T01:32:20.565Z,99531.19
2023-02-28T01:34:47.056Z,99523.25
2023-02-28T01:37:13.534Z,99525.88
2023-02-28T01:39:39.994Z,99536.97
2023-02-28T01:42:06.470Z,99533.63
2023-02-28T01:44:55.807Z,99527.09
2023-02-28T01:47:22.458Z,99522.19
2023-02-28T01:49:48.917Z,99527.44
2023-02-28T01:52:18.881Z,99521.53
2023-02-28T01:54:54.380Z,99528.09
2023-02-28T01:57:24.273Z,99521.78
2023-02-28T02:00:15.257Z,99519.97
2023-02-28T02:02:47.653Z,99520.91
2023-02-28T02:05:22.316Z,99514.22
2023-02-28T02:07:52.451Z,99508.59
2023-02-28T02:10:20.383Z,99517.53
2023-02-28T02:13:12.128Z,99517.53
2023-02-28T02:16:03.544Z,99515.81
2023-02-28T02:18:47.604Z,99533.47
2023-02-28T02:21:28.933Z,99532.13
2023-02-28T02:24:20.328Z,99526.53
2023-02-28T02:27:07.166Z,99531.50
2023-02-28T02:30:07.527Z,99521.47
2023-02-28T02:33:08.021Z,99517.91
2023-02-28T02:36:08.433Z,99520.16
2023-02-28T02:38:45.622Z,99514.38
2023-02-28T02:41:14.967Z,99516.78
2023-02-28T02:43:48.881Z,99511.81
2023-02-28T02:46:18.783Z,99512.31
2023-02-28T02:48:45.280Z,99513.00
2023-02-28T02:51:14.761Z,99507.44
2023-02-28T02:54:03.414Z,99507.00
2023-02-28T02:56:30.219Z,99508.78
2023-02-28T02:58:58.120Z,99505.09
2023-02-28T03:01:30.720Z,99500.63
2023-02-28T03:04:05.926Z,99499.53
2023-02-28T03:06:32.428Z,99502.13
2023-02-28T03:08:58.887Z,99508.03
2023-02-28T03:11:25.400Z,99505.22
2023-02-28T03:14:10.758Z,99508.28
2023-02-28T03:16:58.509Z,99511.97
2023-02-28T03:19:53.988Z,99512.19
2023-02-28T03:22:58.176Z,99512.06
2023-02-28T03:25:35.674Z,99487.81
2023-02-28T03:28:19.594Z,99497.03
2023-02-28T03:31:17.457Z,99488.34
2023-02-28T03:33:47.686Z,99491.25
2023-02-28T03:36:18.837Z,99504.94
2023-02-28T03:38:53.965Z,99497.97
2023-02-28T03:41:22.282Z,99496.25
2023-02-28T03:43:55.004Z,99493.16
2023-02-28T03:46:23.287Z,99495.03
2023-02-28T03:48:56.830Z,99495.28
2023-02-28T03:51:24.137Z,99498.97
2023-02-28T03:53:55.583Z,99498.38
2023-02-28T03:56:24.362Z,99495.31
2023-02-28T03:59:01.749Z,99488.91
2023-02-28T04:01:37.047Z,99481.47
2023-02-28T04:04:03.629Z,99489.75
2023-02-28T04:06:31.541Z,99482.28
2023-02-28T04:08:58.055Z,99480.16
2023-02-28T04:11:41.719Z,99486.31
2023-02-28T04:14:08.798Z,99497.97
2023-02-28T04:16:37.058Z,99484.03
2023-02-28T04:19:05.877Z,99492.47
2023-02-28T04:21:34.092Z,99486.06
2023-02-28T04:24:01.597Z,99481.88
2023-02-28T04:26:31.990Z,99483.31
2023-02-28T04:28:58.972Z,99477.75
2023-02-28T04:31:25.477Z,99477.28
2023-02-28T04:33:52.030Z,99487.25
2023-02-28T04:36:21.580Z,99483.78
2023-02-28T04:38:48.062Z,99488.53
2023-02-28T04:41:14.540Z,99499.22
2023-02-28T04:43:41.025Z,99499.56
2023-02-28T04:46:07.722Z,99492.44
2023-02-28T04:48:36.065Z,99488.69
2023-02-28T04:51:03.334Z,99503.00
2023-02-28T04:53:30.184Z,99504.56
2023-02-28T04:55:59.441Z,99513.06
2023-02-28T04:58:25.945Z,99508.22
2023-02-28T05:00:53.286Z,99509.16
2023-02-28T05:03:21.655Z,99515.81
2023-02-28T05:05:48.129Z,99513.13
2023-02-28T05:08:14.809Z,99515.53
2023-02-28T05:10:41.603Z,99521.69
2023-02-28T05:13:09.765Z,99515.06
2023-02-28T05:15:36.220Z,99512.91
2023-02-28T05:18:02.737Z,99511.84
2023-02-28T05:20:29.200Z,99513.97
2023-02-28T05:22:55.673Z,99512.34
2023-02-28T05:25:23.037Z,99510.91
2023-02-28T05:27:49.960Z,99505.97
2023-02-28T05:30:16.669Z,99508.78
2023-02-28T05:32:45.910Z,99515.41
2023-02-28T05:35:12.393Z,99511.03
2023-02-28T05:37:39.174Z,99515.28
2023-02-28T05:40:12.420Z,99515.75
2023-02-28T05:42:38.931Z,99522.00
2023-02-28T05:45:05.973Z,99519.41
2023-02-28T05:47:32.432Z,99517.97
2023-02-28T05:49:58.893Z,99516.34
2023-02-28T05:52:25.414Z,99516.47
2023-02-28T05:54:51.885Z,99515.53
2023-02-28T05:57:24.333Z,99515.53
2023-02-28T05:59:51.446Z,99522.97
2023-02-28T06:02:18.138Z,99518.72
2023-02-28T06:04:44.702Z,99527.91
2023-02-28T06:07:11.404Z,99533.69
2023-02-28T06:09:37.999Z,99536.44
2023-02-28T06:12:06.470Z,99539.78
2023-02-28T06:14:33.394Z,99531.88
2023-02-28T06:17:00.528Z,99538.31
2023-02-28T06:19:27.060Z,99542.06
2023-02-28T06:21:54.101Z,99547.16
2023-02-28T06:24:21.451Z,99550.72
2023-02-28T06:26:47.916Z,99550.84
2023-02-28T06:29:17.977Z,99545.31
2023-02-28T06:31:47.796Z,99556.41
2023-02-28T06:34:14.498Z,99552.13
2023-02-28T06:36:41.786Z,99551.78
2023-02-28T06:39:08.517Z,99548.94
2023-02-28T06:41:53.756Z,99548.56
2023-02-28T06:44:21.614Z,99558.63
2023-02-28T06:46:48.089Z,99562.38
2023-02-28T06:49:14.716Z,99554.53
2023-02-28T06:51:45.905Z,99554.09
2023-02-28T06:54:12.470Z,99540.41
2023-02-28T06:56:38.993Z,99547.28
2023-02-28T06:59:05.510Z,99554.22
2023-02-28T07:01:33.725Z,99552.41
2023-02-28T07:04:01.029Z,99550.84
2023-02-28T07:06:27.522Z,99555.22
2023-02-28T07:08:54.208Z,99558.91
2023-02-28T07:11:23.335Z,99556.41
2023-02-28T07:13:51.844Z,99560.00
2023-02-28T07:16:18.393Z,99557.38
2023-02-28T07:18:45.020Z,99550.03
2023-02-28T07:21:11.515Z,99556.88
2023-02-28T07:23:40.790Z,99558.34
2023-02-28T07:26:07.642Z,99565.94
2023-02-28T07:28:34.100Z,99566.78
2023-02-28T07:31:05.872Z,99560.75
2023-02-28T07:33:32.386Z,99568.78
2023-02-28T07:36:05.146Z,99556.06
2023-02-28T07:38:31.843Z,99564.00
2023-02-28T07:40:58.298Z,99567.94
2023-02-28T07:43:24.769Z,99569.00
2023-02-28T07:45:51.283Z,99582.84
2023-02-28T07:48:17.766Z,99565.00
2023-02-28T07:50:44.222Z,99566.16
2023-02-28T07:53:10.782Z,99563.44
2023-02-28T07:55:37.282Z,99561.38
2023-02-28T07:58:03.821Z,99564.41
2023-02-28T08:00:31.949Z,99561.75
2023-02-28T08:02:58.981Z,99552.16
2023-02-28T08:05:25.506Z,99556.59
2023-02-28T08:07:52.242Z,99552.94
2023-02-28T08:10:18.744Z,99557.50
2023-02-28T08:12:45.194Z,99550.66
2023-02-28T08:15:11.763Z,99546.28
2023-02-28T08:17:38.316Z,99556.53
2023-02-28T08:20:05.315Z,99557.91
2023-02-28T08:22:33.044Z,99555.50
2023-02-28T08:25:04.972Z,99559.31
2023-02-28T08:27:32.043Z,99559.06
2023-02-28T08:29:58.499Z,99562.13
2023-02-28T08:32:29.904Z,99561.78
2023-02-28T08:34:56.750Z,99557.75
2023-02-28T08:37:23.240Z,99557.00
2023-02-28T08:39:49.707Z,99557.16
2023-02-28T08:42:16.151Z,99564.97
2023-02-28T08:44:42.618Z,99557.81
2023-02-28T08:47:09.098Z,99567.13
2023-02-28T08:49:35.555Z,99565.75
2023-02-28T08:52:02.069Z,99561.06
2023-02-28T08:54:31.603Z,99566.56
2023-02-28T08:56:58.085Z,99564.50
2023-02-28T08:59:24.563Z,99563.09
2023-02-28T09:01:51.027Z,99563.16
2023-02-28T09:04:19.900Z,99569.06
2023-02-28T09:06:47.136Z,99558.78
2023-02-28T09:09:13.663Z,99555.69
2023-02-28T09:11:40.113Z,99560.69
2023-02-28T09:14:06.577Z,99563.38
2023-02-28T09:16:33.833Z,99562.78
2023-02-28T09:19:00.519Z,99567.44
2023-02-28T09:21:27.274Z,99579.41
2023-02-28T09:23:53.889Z,99570.66
2023-02-28T09:26:25.525Z,99583.84
2023-02-28T09:28:52.168Z,99571.94
2023-02-28T09:31:21.961Z,99581.88
2023-02-28T09:33:49.786Z,99586.81
2023-02-28T09:36:16.351Z,99584.72
2023-02-28T09:38:43.630Z,99586.81
2023-02-28T09:41:15.926Z,99592.50
2023-02-28T09:43:45.364Z,99601.88
2023-02-28T09:46:41.596Z,99600.09
2023-02-28T09:49:12.096Z,99599.47
2023-02-28T09:51:52.392Z,99594.47
2023-02-28T09:54:20.996Z,99593.44
2023-02-28T09:57:07.857Z,99590.59
2023-02-28T09:59:40.276Z,99600.13
2023-02-28T10:02:29.539Z,99596.41
2023-02-28T10:04:58.584Z,99615.09
2023-02-28T10:08:05.934Z,99605.44
2023-02-28T10:10:43.761Z,99617.97
2023-02-28T10:13:34.720Z,99602.22
2023-02-28T10:16:33.188Z,99605.59
2023-02-28T10:19:17.869Z,99605.88
2023-02-28T10:21:51.888Z,99608.91
2023-02-28T10:24:29.836Z,99603.34
2023-02-28T10:27:00.769Z,99610.19
2023-02-28T10:29:28.508Z,99597.13
2023-02-28T10:31:54.977Z,99610.19
2023-02-28T10:34:21.466Z,99616.06
2023-02-28T10:36:47.911Z,99624.53
2023-02-28T10:39:36.848Z,99618.81
2023-02-28T10:42:03.340Z,99614.47
2023-02-28T10:44:29.819Z,99610.50
2023-02-28T10:46:56.349Z,99619.34
2023-02-28T10:49:23.538Z,99612.38
2023-02-28T10:51:55.154Z,99612.97
2023-02-28T10:54:25.468Z,99610.03
2023-02-28T10:57:19.783Z,99597.97
2023-02-28T10:59:46.518Z,99599.41
2023-02-28T11:02:31.161Z,99600.31
2023-02-28T11:04:57.628Z,99590.53
2023-02-28T11:07:25.752Z,99588.75
2023-02-28T11:09:57.844Z,99571.78
2023-02-28T11:12:29.340Z,99583.38
2023-02-28T11:14:58.053Z,99572.75
2023-02-28T11:17:29.476Z,99562.34
2023-02-28T11:20:04.394Z,99550.31
2023-02-28T11:22:32.640Z,99537.97
2023-02-28T11:25:00.992Z,99532.72
2023-02-28T11:27:30.373Z,99524.19
2023-02-28T11:29:56.887Z,99535.97
2023-02-28T11:32:29.820Z,99512.72
2023-02-28T11:35:11.583Z,99528.09
2023-02-28T11:37:38.392Z,99519.88
2023-02-28T11:40:22.846Z,99526.69
2023-02-28T11:43:18.997Z,99532.94
2023-02-28T11:46:47.302Z,99538.59
2023-02-28T11:50:00.598Z,99540.53
2023-02-28T11:53:01.409Z,99536.41
2023-02-28T11:55:36.714Z,99539.88
2023-02-28T11:58:15.328Z,99511.63
2023-02-28T12:01:04.292Z,99498.13
2023-02-28T12:03:44.876Z,99493.19
2023-02-28T12:06:37.878Z,99491.41
2023-02-28T12:09:10.471Z,99487.28
2023-02-28T12:11:53.715Z,99478.56
2023-02-28T12:14:45.034Z,99479.75
2023-02-28T12:17:23.165Z,99477.22
2023-02-28T12:20:26.559Z,99470.59
2023-02-28T12:22:55.944Z,99484.78
2023-02-28T12:25:44.409Z,99467.44
2023-02-28T12:28:12.082Z,99475.38
2023-02-28T12:30:39.635Z,99462.00
2023-02-28T12:33:08.725Z,99468.19
2023-02-28T12:35:45.231Z,99464.91
2023-02-28T12:38:14.130Z,99478.03
2023-02-28T12:40:48.530Z,99473.22
2023-02-28T12:43:17.093Z,99457.72
2023-02-28T12:45:52.952Z,99452.66
2023-02-28T12:48:32.721Z,99446.09
2023-02-28T12:51:00.022Z,99440.38
2023-02-28T12:53:47.794Z,99446.81
2023-02-28T12:56:36.264Z,99440.69
2023-02-28T12:59:08.308Z,99441.69
2023-02-28T13:01:44.574Z,99432.38
2023-02-28T13:04:26.617Z,99430.34
2023-02-28T13:06:59.118Z,99425.91
2023-02-28T13:09:25.647Z,99410.16
2023-02-28T13:11:53.265Z,99408.91
2023-02-28T13:14:21.201Z,99418.75
2023-02-28T13:16:51.394Z,99416.00
2023-02-28T13:19:18.239Z,99417.00
2023-02-28T13:21:45.508Z,99424.56
2023-02-28T13:24:12.814Z,99423.19
2023-02-28T13:26:39.233Z,99422.34
2023-02-28T13:29:23.861Z,99432.25
2023-02-28T13:32:09.019Z,99429.50
2023-02-28T13:34:50.552Z,99425.50
2023-02-28T13:37:22.944Z,99427.31
2023-02-28T13:40:08.151Z,99419.59
2023-02-28T13:42:37.969Z,99417.00
2023-02-28T13:45:04.357Z,99419.38
2023-02-28T13:47:40.001Z,99418.28
2023-02-28T13:50:34.611Z,99410.84
2023-02-28T13:53:03.956Z,99414.25
2023-02-28T13:55:30.350Z,99414.63
2023-02-28T13:58:28.945Z,99417.34
2023-02-28T14:01:07.826Z,99416.88
2023-02-28T14:03:34.201Z,99406.06
2023-02-28T14:06:23.208Z,99399.94
2023-02-28T14:09:00.276Z,99396.53
2023-02-28T14:11:40.376Z,99400.84
2023-02-28T14:14:08.078Z,99386.22
2023-02-28T14:16:42.108Z,99388.97
2023-02-28T14:19:16.231Z,99388.59
2023-02-28T14:22:13.592Z,99382.00
2023-02-28T14:24:42.911Z,99386.56
2023-02-28T14:27:22.671Z,99377.50
2023-02-28T14:29:52.258Z,99391.47
2023-02-28T14:32:36.357Z,99380.13
2023-02-28T14:35:23.608Z,99382.75
2023-02-28T14:37:50.736Z,99384.69
2023-02-28T14:40:27.870Z,99388.75
2023-02-28T14:42:59.225Z,99391.44
2023-02-28T14:45:25.698Z,99391.25
2023-02-28T14:47:52.451Z,99383.06
2023-02-28T14:50:23.238Z,99388.06
2023-02-28T14:52:52.879Z,99390.59
2023-02-28T14:55:20.895Z,99407.91
2023-02-28T14:58:07.707Z,99411.47
2023-02-28T15:00:35.709Z,99407.41
2023-02-28T15:03:18.919Z,99404.91
2023-02-28T15:05:52.728Z,99412.06
2023-02-28T15:08:20.914Z,99404.38
2023-02-28T15:10:52.895Z,99406.06
2023-02-28T15:13:19.838Z,99420.59
2023-02-28T15:16:02.055Z,99428.53
2023-02-28T15:18:42.630Z,99422.22
2023-02-28T15:21:13.535Z,99425.50
2023-02-28T15:23:40.016Z,99410.16
2023-02-28T15:26:06.547Z,99412.38
2023-02-28T15:28:33.120Z,99402.22
2023-02-28T15:31:02.548Z,99414.28
2023-02-28T15:33:30.282Z,99418.66
2023-02-28T15:36:18.409Z,99407.97
2023-02-28T15:38:44.956Z,99406.63
2023-02-28T15:41:25.995Z,99402.78
2023-02-28T15:44:38.425Z,99408.81
2023-02-28T15:47:06.166Z,99402.50
2023-02-28T15:49:44.949Z,99408.53
2023-02-28T15:52:15.071Z,99413.47
2023-02-28T15:54:41.624Z,99412.38
2023-02-28T15:57:11.336Z,99400.88
2023-02-28T15:59:38.807Z,99410.19
2023-02-28T16:02:11.367Z,99411.25
2023-02-28T16:04:38.288Z,99415.91
2023-02-28T16:07:05.944Z,99412.91
2023-02-28T16:09:34.401Z,99416.47
2023-02-28T16:12:02.495Z,99412.38
2023-02-28T16:14:31.056Z,99419.19
2023-02-28T16:17:02.705Z,99421.38
2023-02-28T16:19:29.208Z,99421.13
2023-02-28T16:21:55.741Z,99415.09
2023-02-28T16:24:22.234Z,99422.22
2023-02-28T16:26:49.940Z,99417.53
2023-02-28T16:29:25.153Z,99423.25
2023-02-28T16:31:51.642Z,99422.16
2023-02-28T16:34:18.197Z,99413.41
2023-02-28T16:36:44.960Z,99416.94
2023-02-28T16:39:11.431Z,99419.97
2023-02-28T16:41:37.961Z,99433.34
2023-02-28T16:44:04.752Z,99426.22
2023-02-28T16:46:32.674Z,99432.50
2023-02-28T16:48:59.168Z,99440.09
2023-02-28T16:51:25.645Z,99439.56
2023-02-28T16:53:52.191Z,99458.94
2023-02-28T16:56:23.416Z,99448.31
2023-02-28T16:58:50.245Z,99454.78
2023-02-28T17:01:17.261Z,99466.47
2023-02-28T17:03:43.855Z,99466.97
2023-02-28T17:06:23.068Z,99458.38
2023-02-28T17:08:50.497Z,99465.78
2023-02-28T17:11:17.360Z,99468.38
2023-02-28T17:13:43.970Z,99462.56
2023-02-28T17:16:19.273Z,99465.34
2023-02-28T17:18:45.819Z,99470.56
2023-02-28T17:21:14.979Z,99469.41
2023-02-28T17:23:41.454Z,99468.69
2023-02-28T17:26:09.741Z,99479.03
2023-02-28T17:28:36.224Z,99471.94
2023-02-28T17:31:02.725Z,99479.72
2023-02-28T17:33:29.197Z,99478.59
2023-02-28T17:35:55.743Z,99489.56
2023-02-28T17:38:23.815Z,99492.63
2023-02-28T17:40:50.349Z,99496.13
2023-02-28T17:43:17.048Z,99507.13
2023-02-28T17:45:43.562Z,99502.50
2023-02-28T17:48:13.663Z,99503.09
2023-02-28T17:50:40.146Z,99506.63
2023-02-28T17:53:06.613Z,99506.88
2023-02-28T17:55:34.595Z,99523.94
2023-02-28T17:58:01.234Z,99530.53
2023-02-28T18:00:27.746Z,99511.53
2023-02-28T18:02:55.300Z,99528.94
2023-02-28T18:05:21.800Z,99514.34
2023-02-28T18:07:48.262Z,99517.59
2023-02-28T18:10:22.028Z,99516.94
2023-02-28T18:12:49.105Z,99513.84
2023-02-28T18:15:16.391Z,99520.88
2023-02-28T18:17:42.861Z,99518.16
2023-02-28T18:20:10.764Z,99514.34
2023-02-28T18:22:38.133Z,99523.97
2023-02-28T18:25:05.511Z,99535.00
2023-02-28T18:27:32.002Z,99523.03
2023-02-28T18:29:58.471Z,99528.56
2023-02-28T18:32:24.971Z,99530.91
2023-02-28T18:34:51.480Z,99528.34
2023-02-28T18:37:18.532Z,99528.31
2023-02-28T18:39:45.261Z,99519.78
2023-02-28T18:42:11.753Z,99514.69
2023-02-28T18:44:39.332Z,99508.53
2023-02-28T18:47:05.830Z,99509.31
2023-02-28T18:49:34.063Z,99507.00
2023-02-28T18:52:00.565Z,99510.63
2023-02-28T18:54:27.412Z,99511.38
2023-02-28T18:56:54.877Z,99512.47
2023-02-28T18:59:21.484Z,99521.56
2023-02-28T19:01:48.033Z,99522.81
2023-02-28T19:04:14.827Z,99515.59
2023-02-28T19:06:42.187Z,99507.03
2023-02-28T19:09:08.713Z,99500.91
2023-02-28T19:11:36.661Z,99502.19
2023-02-28T19:14:03.309Z,99501.69
2023-02-28T19:16:30.081Z,99493.69
2023-02-28T19:18:57.862Z,99497.91
2023-02-28T19:21:24.893Z,99496.50
2023-02-28T19:23:51.441Z,99498.22
2023-02-28T19:26:24.785Z,99502.53
2023-02-28T19:28:51.275Z,99495.63
2023-02-28T19:31:19.754Z,99500.34
2023-02-28T19:33:46.358Z,99507.44
2023-02-28T19:36:12.894Z,99507.06
2023-02-28T19:38:39.879Z,99507.31
2023-02-28T19:41:07.929Z,99505.59
2023-02-28T19:43:34.439Z,99509.44
2023-02-28T19:46:01.138Z,99502.19
2023-02-28T19:48:28.455Z,99502.25
2023-02-28T19:51:06.082Z,99499.22
2023-02-28T19:53:33.316Z,99496.13
2023-02-28T19:56:00.504Z,99493.78
2023-02-28T19:58:27.378Z,99492.72
2023-02-28T20:00:53.927Z,99495.72
2023-02-28T20:03:20.605Z,99494.63
2023-02-28T20:05:47.097Z,99491.97
2023-02-28T20:08:13.891Z,99490.81
2023-02-28T20:10:40.362Z,99502.50
2023-02-28T20:13:07.102Z,99513.13
2023-02-28T20:15:33.580Z,99501.94
2023-02-28T20:18:00.452Z,99505.53
2023-02-28T20:20:27.072Z,99504.13
2023-02-28T20:22:53.612Z,99513.13
2023-02-28T20:25:20.733Z,99511.50
2023-02-28T20:27:47.218Z,99514.22
2023-02-28T20:30:13.768Z,99508.00
2023-02-28T20:32:40.301Z,99513.66
2023-02-28T20:35:08.749Z,99511.47
2023-02-28T20:37:35.278Z,99515.84
2023-02-28T20:40:04.369Z,99515.69
2023-02-28T20:42:30.919Z,99520.53
2023-02-28T20:44:57.375Z,99522.94
2023-02-28T20:47:23.821Z,99529.44
2023-02-28T20:49:50.281Z,99529.41
2023-02-28T20:52:16.748Z,99535.00
2023-02-28T20:54:43.253Z,99534.19
2023-02-28T20:57:09.720Z,99542.00
2023-02-28T20:59:36.460Z,99536.22
2023-02-28T21:02:02.937Z,99540.28
2023-02-28T21:04:30.205Z,99541.50
2023-02-28T21:06:56.674Z,99536.97
2023-02-28T21:09:23.145Z,99539.69
2023-02-28T21:11:50.539Z,99549.88
2023-02-28T21:14:17.487Z,99552.50
2023-02-28T21:16:44.685Z,99554.16
2023-02-28T21:19:11.323Z,99553.69
2023-02-28T21:21:39.448Z,99557.28
2023-02-28T21:24:06.373Z,99544.78
2023-02-28T21:26:33.165Z,99535.66
2023-02-28T21:29:00.697Z,99529.94
2023-02-28T21:31:28.766Z,99523.19
2023-02-28T21:33:56.090Z,99524.25
2023-02-28T21:36:24.572Z,99522.69
2023-02-28T21:38:58.326Z,99516.38
2023-02-28T21:41:24.829Z,99519.72
2023-02-28T21:43:51.419Z,99527.72
2023-02-28T21:46:20.144Z,99528.31
2023-02-28T21:48:48.944Z,99536.66
2023-02-28T21:51:20.232Z,99529.13
2023-02-28T21:53:46.753Z,99531.31
2023-02-28T21:56:15.102Z,99537.91
2023-02-28T21:58:41.612Z,99537.13
2023-02-28T22:01:09.614Z,99534.56
2023-02-28T22:03:36.118Z,99534.06
2023-02-28T22:06:29.535Z,99528.19
2023-02-28T22:08:57.940Z,99526.41
2023-02-28T22:11:25.122Z,99535.50
2023-02-28T22:13:58.285Z,99531.16
2023-02-28T22:16:27.179Z,99527.78
2023-02-28T22:18:55.002Z,99528.03
2023-02-28T22:21:21.548Z,99525.78
2023-02-28T22:23:48.194Z,99534.69
2023-02-28T22:26:18.271Z,99537.91
2023-02-28T22:28:44.598Z,99540.38
2023-02-28T22:31:17.904Z,99535.19
2023-02-28T22:33:44.483Z,99532.81
2023-02-28T22:36:12.069Z,99537.44
2023-02-28T22:38:38.615Z,99530.34
2023-02-28T22:41:05.300Z,99532.63
2023-02-28T22:43:32.065Z,99534.19
2023-02-28T22:46:02.697Z,99537.72
2023-02-28T22:48:29.214Z,99548.19
2023-02-28T22:51:06.322Z,99540.06
2023-02-28T22:53:34.004Z,99537.91
2023-02-28T22:56:00.483Z,99529.06
2023-02-28T22:58:26.959Z,99528.44
2023-02-28T23:00:56.262Z,99517.38
2023-02-28T23:03:24.131Z,99520.66
2023-02-28T23:05:51.959Z,99514.34
2023-02-28T23:08:22.296Z,99516.06
2023-02-28T23:10:50.511Z,99526.16
2023-02-28T23:13:20.051Z,99520.22
2023-02-28T23:15:46.727Z,99519.03
2023-02-28T23:18:14.040Z,99503.91
2023-02-28T23:20:40.508Z,99513.41
2023-02-28T23:23:07.005Z,99517.31
2023-02-28T23:25:33.539Z,99527.84
2023-02-28T23:28:00.005Z,99514.16
2023-02-28T23:30:26.736Z,99514.25
2023-02-28T23:32:53.199Z,99514.75
2023-02-28T23:35:19.694Z,99518.09
2023-02-28T23:37:46.171Z,99521.69
2023-02-28T23:40:13.117Z,99531.91
2023-02-28T23:42:39.675Z,99526.16
2023-02-28T23:45:06.914Z,99522.34
2023-02-28T23:47:33.387Z,99523.41
2023-02-28T23:49:59.858Z,99535.00
2023-02-28T23:52:26.336Z,99533.72
2023-02-28T23:54:52.829Z,99528.38
2023-02-28T23:57:19.532Z,99526.53
2023-02-28T23:59:46.068Z,99519.44
